sensor_id;sensor_type;location;lat;lon;timestamp;P1;durP1;ratioP1;P2;durP2;ratioP2
30934;SDS011;51033;42.648;23.292;2023-12-20T00:01:50;71.38;;;40.85;;
30934;SDS011;51033;42.648;23.292;2023-12-20T00:04:15;64.47;;;32.47;;
30934;SDS011;51033;42.648;23.292;2023-12-20T00:06:40;45.30;;;26.90;;
30934;SDS011;51033;42.648;23.292;2023-12-20T00:09:06;40.80;;;22.92;;
30934;SDS011;51033;42.648;23.292;2023-12-20T00:11:31;39.13;;;24.15;;
30934;SDS011;51033;42.648;23.292;2023-12-20T00:13:57;33.97;;;20.27;;
30934;SDS011;51033;42.648;23.292;2023-12-20T00:16:22;33.00;;;19.98;;
30934;SDS011;51033;42.648;23.292;2023-12-20T00:18:47;30.38;;;19.10;;
30934;SDS011;51033;42.648;23.292;2023-12-20T00:21:14;27.42;;;17.67;;
30934;SDS011;51033;42.648;23.292;2023-12-20T00:23:39;29.13;;;17.52;;
30934;SDS011;51033;42.648;23.292;2023-12-20T00:26:05;30.80;;;18.50;;
30934;SDS011;51033;42.648;23.292;2023-12-20T00:28:30;26.25;;;16.40;;
30934;SDS011;51033;42.648;23.292;2023-12-20T00:30:55;24.60;;;15.20;;
30934;SDS011;51033;42.648;23.292;2023-12-20T00:33:21;16.15;;;10.85;;
30934;SDS011;51033;42.648;23.292;2023-12-20T00:35:46;14.07;;;9.15;;
30934;SDS011;51033;42.648;23.292;2023-12-20T00:38:11;13.95;;;7.60;;
30934;SDS011;51033;42.648;23.292;2023-12-20T00:40:37;9.93;;;6.82;;
30934;SDS011;51033;42.648;23.292;2023-12-20T00:43:03;10.60;;;6.85;;
30934;SDS011;51033;42.648;23.292;2023-12-20T00:45:28;10.57;;;5.93;;
30934;SDS011;51033;42.648;23.292;2023-12-20T00:47:54;8.18;;;5.75;;
30934;SDS011;51033;42.648;23.292;2023-12-20T00:50:20;11.75;;;7.07;;
30934;SDS011;51033;42.648;23.292;2023-12-20T00:52:46;12.32;;;8.18;;
30934;SDS011;51033;42.648;23.292;2023-12-20T00:55:12;14.65;;;8.73;;
30934;SDS011;51033;42.648;23.292;2023-12-20T00:57:38;13.15;;;9.40;;
30934;SDS011;51033;42.648;23.292;2023-12-20T01:00:04;21.63;;;11.10;;
30934;SDS011;51033;42.648;23.292;2023-12-20T01:02:30;14.68;;;8.98;;
30934;SDS011;51033;42.648;23.292;2023-12-20T01:04:55;18.33;;;9.77;;
30934;SDS011;51033;42.648;23.292;2023-12-20T01:07:21;13.38;;;9.48;;
30934;SDS011;51033;42.648;23.292;2023-12-20T01:09:46;15.35;;;10.30;;
30934;SDS011;51033;42.648;23.292;2023-12-20T01:12:12;12.90;;;8.75;;
30934;SDS011;51033;42.648;23.292;2023-12-20T01:14:37;10.50;;;6.05;;
30934;SDS011;51033;42.648;23.292;2023-12-20T01:17:04;7.78;;;4.70;;
30934;SDS011;51033;42.648;23.292;2023-12-20T01:19:29;10.00;;;4.68;;
30934;SDS011;51033;42.648;23.292;2023-12-20T01:21:55;9.13;;;5.82;;
30934;SDS011;51033;42.648;23.292;2023-12-20T01:24:20;10.98;;;7.53;;
30934;SDS011;51033;42.648;23.292;2023-12-20T01:26:46;13.68;;;7.90;;
30934;SDS011;51033;42.648;23.292;2023-12-20T01:29:11;13.57;;;8.48;;
30934;SDS011;51033;42.648;23.292;2023-12-20T01:31:37;15.68;;;8.35;;
30934;SDS011;51033;42.648;23.292;2023-12-20T01:34:02;17.23;;;10.93;;
30934;SDS011;51033;42.648;23.292;2023-12-20T01:36:27;16.88;;;10.52;;
30934;SDS011;51033;42.648;23.292;2023-12-20T01:38:54;24.63;;;14.93;;
30934;SDS011;51033;42.648;23.292;2023-12-20T01:41:20;20.75;;;12.85;;
30934;SDS011;51033;42.648;23.292;2023-12-20T01:43:45;23.13;;;15.95;;
30934;SDS011;51033;42.648;23.292;2023-12-20T01:46:10;26.30;;;16.15;;
30934;SDS011;51033;42.648;23.292;2023-12-20T01:48:37;22.38;;;14.55;;
30934;SDS011;51033;42.648;23.292;2023-12-20T01:51:03;26.02;;;15.43;;
30934;SDS011;51033;42.648;23.292;2023-12-20T01:53:29;17.55;;;12.15;;
30934;SDS011;51033;42.648;23.292;2023-12-20T01:55:55;20.42;;;12.07;;
30934;SDS011;51033;42.648;23.292;2023-12-20T01:58:23;19.40;;;12.07;;
30934;SDS011;51033;42.648;23.292;2023-12-20T02:00:49;22.23;;;11.75;;
30934;SDS011;51033;42.648;23.292;2023-12-20T02:03:15;19.90;;;11.88;;
30934;SDS011;51033;42.648;23.292;2023-12-20T02:05:41;20.85;;;13.10;;
30934;SDS011;51033;42.648;23.292;2023-12-20T02:08:07;19.13;;;12.32;;
30934;SDS011;51033;42.648;23.292;2023-12-20T02:10:32;18.58;;;12.15;;
30934;SDS011;51033;42.648;23.292;2023-12-20T02:12:58;18.30;;;11.45;;
30934;SDS011;51033;42.648;23.292;2023-12-20T02:15:23;18.77;;;12.70;;
30934;SDS011;51033;42.648;23.292;2023-12-20T02:17:49;25.33;;;16.40;;
30934;SDS011;51033;42.648;23.292;2023-12-20T02:20:15;24.17;;;14.48;;
30934;SDS011;51033;42.648;23.292;2023-12-20T02:22:41;19.60;;;13.88;;
30934;SDS011;51033;42.648;23.292;2023-12-20T02:25:06;20.10;;;12.07;;
30934;SDS011;51033;42.648;23.292;2023-12-20T02:27:32;17.60;;;10.52;;
30934;SDS011;51033;42.648;23.292;2023-12-20T02:29:57;13.55;;;9.13;;
30934;SDS011;51033;42.648;23.292;2023-12-20T02:32:23;13.23;;;8.57;;
30934;SDS011;51033;42.648;23.292;2023-12-20T02:34:51;15.65;;;8.70;;
30934;SDS011;51033;42.648;23.292;2023-12-20T02:37:17;13.63;;;8.73;;
30934;SDS011;51033;42.648;23.292;2023-12-20T02:39:42;14.77;;;8.88;;
30934;SDS011;51033;42.648;23.292;2023-12-20T02:42:08;18.77;;;11.18;;
30934;SDS011;51033;42.648;23.292;2023-12-20T02:44:33;19.00;;;11.57;;
30934;SDS011;51033;42.648;23.292;2023-12-20T02:46:59;17.83;;;10.55;;
30934;SDS011;51033;42.648;23.292;2023-12-20T02:49:24;19.20;;;12.00;;
30934;SDS011;51033;42.648;23.292;2023-12-20T02:51:49;20.13;;;12.68;;
30934;SDS011;51033;42.648;23.292;2023-12-20T02:54:15;18.73;;;12.18;;
30934;SDS011;51033;42.648;23.292;2023-12-20T02:56:41;20.35;;;13.27;;
30934;SDS011;51033;42.648;23.292;2023-12-20T02:59:06;20.35;;;12.00;;
30934;SDS011;51033;42.648;23.292;2023-12-20T03:01:33;19.40;;;12.13;;
30934;SDS011;51033;42.648;23.292;2023-12-20T03:03:59;18.08;;;11.82;;
30934;SDS011;51033;42.648;23.292;2023-12-20T03:06:25;22.98;;;13.30;;
30934;SDS011;51033;42.648;23.292;2023-12-20T03:08:50;24.83;;;13.27;;
30934;SDS011;51033;42.648;23.292;2023-12-20T03:11:15;21.88;;;14.50;;
30934;SDS011;51033;42.648;23.292;2023-12-20T03:13:41;24.35;;;16.52;;
30934;SDS011;51033;42.648;23.292;2023-12-20T03:16:12;32.60;;;16.40;;
30934;SDS011;51033;42.648;23.292;2023-12-20T03:18:40;23.02;;;14.50;;
30934;SDS011;51033;42.648;23.292;2023-12-20T03:21:05;28.90;;;17.00;;
30934;SDS011;51033;42.648;23.292;2023-12-20T03:23:32;29.02;;;17.48;;
30934;SDS011;51033;42.648;23.292;2023-12-20T03:25:59;27.42;;;18.15;;
30934;SDS011;51033;42.648;23.292;2023-12-20T03:28:25;27.98;;;16.80;;
30934;SDS011;51033;42.648;23.292;2023-12-20T03:30:51;25.40;;;14.52;;
30934;SDS011;51033;42.648;23.292;2023-12-20T03:33:16;18.55;;;11.18;;
30934;SDS011;51033;42.648;23.292;2023-12-20T03:35:42;19.02;;;11.75;;
30934;SDS011;51033;42.648;23.292;2023-12-20T03:38:07;22.25;;;10.30;;
30934;SDS011;51033;42.648;23.292;2023-12-20T03:40:33;19.45;;;11.55;;
30934;SDS011;51033;42.648;23.292;2023-12-20T03:42:58;22.55;;;13.73;;
30934;SDS011;51033;42.648;23.292;2023-12-20T03:45:24;19.20;;;12.20;;
30934;SDS011;51033;42.648;23.292;2023-12-20T03:47:49;26.90;;;11.98;;
30934;SDS011;51033;42.648;23.292;2023-12-20T03:50:19;16.00;;;10.23;;
30934;SDS011;51033;42.648;23.292;2023-12-20T03:52:45;19.27;;;11.02;;
30934;SDS011;51033;42.648;23.292;2023-12-20T03:55:10;16.90;;;9.90;;
30934;SDS011;51033;42.648;23.292;2023-12-20T03:57:36;21.95;;;11.05;;
30934;SDS011;51033;42.648;23.292;2023-12-20T04:00:01;19.98;;;12.40;;
30934;SDS011;51033;42.648;23.292;2023-12-20T04:02:29;25.73;;;11.80;;
30934;SDS011;51033;42.648;23.292;2023-12-20T04:04:55;20.15;;;12.98;;
30934;SDS011;51033;42.648;23.292;2023-12-20T04:07:20;16.98;;;11.95;;
30934;SDS011;51033;42.648;23.292;2023-12-20T04:09:46;19.45;;;11.27;;
30934;SDS011;51033;42.648;23.292;2023-12-20T04:12:13;16.45;;;10.85;;
30934;SDS011;51033;42.648;23.292;2023-12-20T04:14:38;19.58;;;11.52;;
30934;SDS011;51033;42.648;23.292;2023-12-20T04:17:03;20.65;;;10.23;;
30934;SDS011;51033;42.648;23.292;2023-12-20T04:19:29;15.02;;;9.35;;
30934;SDS011;51033;42.648;23.292;2023-12-20T04:21:54;14.15;;;8.60;;
30934;SDS011;51033;42.648;23.292;2023-12-20T04:24:19;13.63;;;8.90;;
30934;SDS011;51033;42.648;23.292;2023-12-20T04:26:48;15.35;;;9.50;;
30934;SDS011;51033;42.648;23.292;2023-12-20T04:29:13;13.88;;;9.43;;
30934;SDS011;51033;42.648;23.292;2023-12-20T04:31:38;17.85;;;13.10;;
30934;SDS011;51033;42.648;23.292;2023-12-20T04:34:04;24.08;;;14.23;;
30934;SDS011;51033;42.648;23.292;2023-12-20T04:36:29;20.33;;;12.25;;
30934;SDS011;51033;42.648;23.292;2023-12-20T04:38:55;16.42;;;11.57;;
30934;SDS011;51033;42.648;23.292;2023-12-20T04:41:20;21.35;;;13.20;;
30934;SDS011;51033;42.648;23.292;2023-12-20T04:43:46;14.75;;;10.48;;
30934;SDS011;51033;42.648;23.292;2023-12-20T04:46:11;16.85;;;11.48;;
30934;SDS011;51033;42.648;23.292;2023-12-20T04:48:36;14.40;;;10.57;;
30934;SDS011;51033;42.648;23.292;2023-12-20T04:51:02;16.75;;;11.27;;
30934;SDS011;51033;42.648;23.292;2023-12-20T04:53:27;18.73;;;12.65;;
30934;SDS011;51033;42.648;23.292;2023-12-20T04:55:53;20.88;;;11.38;;
30934;SDS011;51033;42.648;23.292;2023-12-20T04:58:18;21.92;;;11.93;;
30934;SDS011;51033;42.648;23.292;2023-12-20T05:00:44;17.88;;;11.70;;
30934;SDS011;51033;42.648;23.292;2023-12-20T05:03:09;26.33;;;13.52;;
30934;SDS011;51033;42.648;23.292;2023-12-20T05:05:35;19.20;;;11.52;;
30934;SDS011;51033;42.648;23.292;2023-12-20T05:08:01;16.05;;;11.40;;
30934;SDS011;51033;42.648;23.292;2023-12-20T05:10:26;14.13;;;11.27;;
30934;SDS011;51033;42.648;23.292;2023-12-20T05:12:52;16.08;;;10.13;;
30934;SDS011;51033;42.648;23.292;2023-12-20T05:15:20;15.95;;;10.98;;
30934;SDS011;51033;42.648;23.292;2023-12-20T05:17:45;29.10;;;15.55;;
30934;SDS011;51033;42.648;23.292;2023-12-20T05:20:10;21.08;;;14.30;;
30934;SDS011;51033;42.648;23.292;2023-12-20T05:22:36;28.58;;;21.08;;
30934;SDS011;51033;42.648;23.292;2023-12-20T05:25:01;25.95;;;16.98;;
30934;SDS011;51033;42.648;23.292;2023-12-20T05:27:29;28.48;;;19.48;;
30934;SDS011;51033;42.648;23.292;2023-12-20T05:29:56;30.05;;;17.85;;
30934;SDS011;51033;42.648;23.292;2023-12-20T05:32:23;29.48;;;19.52;;
30934;SDS011;51033;42.648;23.292;2023-12-20T05:34:48;31.63;;;21.08;;
30934;SDS011;51033;42.648;23.292;2023-12-20T05:37:14;33.22;;;21.25;;
30934;SDS011;51033;42.648;23.292;2023-12-20T05:39:39;35.70;;;22.52;;
30934;SDS011;51033;42.648;23.292;2023-12-20T05:42:05;37.38;;;24.77;;
30934;SDS011;51033;42.648;23.292;2023-12-20T05:44:30;41.50;;;28.83;;
30934;SDS011;51033;42.648;23.292;2023-12-20T05:46:55;45.30;;;27.55;;
30934;SDS011;51033;42.648;23.292;2023-12-20T05:49:21;38.83;;;26.60;;
30934;SDS011;51033;42.648;23.292;2023-12-20T05:51:47;42.78;;;26.58;;
30934;SDS011;51033;42.648;23.292;2023-12-20T05:54:12;43.75;;;27.65;;
30934;SDS011;51033;42.648;23.292;2023-12-20T05:56:38;46.63;;;27.23;;
30934;SDS011;51033;42.648;23.292;2023-12-20T05:59:03;41.47;;;26.08;;
30934;SDS011;51033;42.648;23.292;2023-12-20T06:01:29;44.33;;;27.45;;
30934;SDS011;51033;42.648;23.292;2023-12-20T06:03:55;44.40;;;28.02;;
30934;SDS011;51033;42.648;23.292;2023-12-20T06:06:20;49.55;;;31.10;;
30934;SDS011;51033;42.648;23.292;2023-12-20T06:08:45;51.63;;;32.28;;
30934;SDS011;51033;42.648;23.292;2023-12-20T06:11:11;62.55;;;36.47;;
30934;SDS011;51033;42.648;23.292;2023-12-20T06:13:36;62.53;;;39.80;;
30934;SDS011;51033;42.648;23.292;2023-12-20T06:16:02;67.38;;;41.95;;
30934;SDS011;51033;42.648;23.292;2023-12-20T06:18:28;65.57;;;39.53;;
30934;SDS011;51033;42.648;23.292;2023-12-20T06:20:54;60.80;;;38.45;;
30934;SDS011;51033;42.648;23.292;2023-12-20T06:23:20;63.33;;;41.20;;
30934;SDS011;51033;42.648;23.292;2023-12-20T06:25:45;63.33;;;39.55;;
30934;SDS011;51033;42.648;23.292;2023-12-20T06:28:11;65.32;;;43.97;;
30934;SDS011;51033;42.648;23.292;2023-12-20T06:30:40;70.43;;;44.33;;
30934;SDS011;51033;42.648;23.292;2023-12-20T06:33:07;78.43;;;48.88;;
30934;SDS011;51033;42.648;23.292;2023-12-20T06:35:32;76.60;;;47.22;;
30934;SDS011;51033;42.648;23.292;2023-12-20T06:37:57;66.15;;;43.58;;
30934;SDS011;51033;42.648;23.292;2023-12-20T06:40:23;69.45;;;44.33;;
30934;SDS011;51033;42.648;23.292;2023-12-20T06:42:48;67.93;;;43.40;;
30934;SDS011;51033;42.648;23.292;2023-12-20T06:45:14;67.32;;;44.65;;
30934;SDS011;51033;42.648;23.292;2023-12-20T06:47:39;70.85;;;45.35;;
30934;SDS011;51033;42.648;23.292;2023-12-20T06:50:05;82.97;;;51.35;;
30934;SDS011;51033;42.648;23.292;2023-12-20T06:52:33;107.55;;;65.97;;
30934;SDS011;51033;42.648;23.292;2023-12-20T06:54:58;131.27;;;79.30;;
30934;SDS011;51033;42.648;23.292;2023-12-20T06:57:24;115.68;;;74.43;;
30934;SDS011;51033;42.648;23.292;2023-12-20T06:59:51;106.85;;;68.00;;
30934;SDS011;51033;42.648;23.292;2023-12-20T07:02:17;109.15;;;68.30;;
30934;SDS011;51033;42.648;23.292;2023-12-20T07:04:42;119.25;;;74.57;;
30934;SDS011;51033;42.648;23.292;2023-12-20T07:07:08;128.70;;;75.70;;
30934;SDS011;51033;42.648;23.292;2023-12-20T07:09:33;121.18;;;74.53;;
30934;SDS011;51033;42.648;23.292;2023-12-20T07:11:59;118.43;;;72.72;;
30934;SDS011;51033;42.648;23.292;2023-12-20T07:14:24;113.78;;;69.13;;
30934;SDS011;51033;42.648;23.292;2023-12-20T07:16:50;117.82;;;76.07;;
30934;SDS011;51033;42.648;23.292;2023-12-20T07:19:22;116.65;;;75.57;;
30934;SDS011;51033;42.648;23.292;2023-12-20T07:21:51;130.15;;;80.35;;
30934;SDS011;51033;42.648;23.292;2023-12-20T07:24:17;133.43;;;80.20;;
30934;SDS011;51033;42.648;23.292;2023-12-20T07:26:42;142.40;;;84.90;;
30934;SDS011;51033;42.648;23.292;2023-12-20T07:29:08;139.25;;;86.15;;
30934;SDS011;51033;42.648;23.292;2023-12-20T07:31:33;139.95;;;83.53;;
30934;SDS011;51033;42.648;23.292;2023-12-20T07:33:59;142.35;;;87.20;;
30934;SDS011;51033;42.648;23.292;2023-12-20T07:36:25;140.45;;;84.50;;
30934;SDS011;51033;42.648;23.292;2023-12-20T07:38:50;146.75;;;88.78;;
30934;SDS011;51033;42.648;23.292;2023-12-20T07:41:15;138.93;;;85.50;;
30934;SDS011;51033;42.648;23.292;2023-12-20T07:43:41;143.35;;;86.57;;
30934;SDS011;51033;42.648;23.292;2023-12-20T07:46:07;164.00;;;101.70;;
30934;SDS011;51033;42.648;23.292;2023-12-20T07:48:34;164.10;;;101.53;;
30934;SDS011;51033;42.648;23.292;2023-12-20T07:51:00;163.32;;;100.63;;
30934;SDS011;51033;42.648;23.292;2023-12-20T07:53:26;155.82;;;97.15;;
30934;SDS011;51033;42.648;23.292;2023-12-20T07:55:52;150.35;;;92.05;;
30934;SDS011;51033;42.648;23.292;2023-12-20T07:58:17;149.40;;;97.90;;
30934;SDS011;51033;42.648;23.292;2023-12-20T08:00:43;162.20;;;99.18;;
30934;SDS011;51033;42.648;23.292;2023-12-20T08:03:09;153.40;;;97.47;;
30934;SDS011;51033;42.648;23.292;2023-12-20T08:05:34;173.38;;;106.15;;
30934;SDS011;51033;42.648;23.292;2023-12-20T08:07:59;166.93;;;101.40;;
30934;SDS011;51033;42.648;23.292;2023-12-20T08:10:25;174.93;;;100.40;;
30934;SDS011;51033;42.648;23.292;2023-12-20T08:12:50;172.23;;;104.38;;
30934;SDS011;51033;42.648;23.292;2023-12-20T08:15:16;153.93;;;99.95;;
30934;SDS011;51033;42.648;23.292;2023-12-20T08:17:41;149.57;;;91.47;;
30934;SDS011;51033;42.648;23.292;2023-12-20T08:20:07;143.32;;;94.85;;
30934;SDS011;51033;42.648;23.292;2023-12-20T08:22:34;146.65;;;90.50;;
30934;SDS011;51033;42.648;23.292;2023-12-20T08:25:00;147.32;;;92.68;;
30934;SDS011;51033;42.648;23.292;2023-12-20T08:27:26;144.10;;;91.03;;
30934;SDS011;51033;42.648;23.292;2023-12-20T08:29:52;144.02;;;90.35;;
30934;SDS011;51033;42.648;23.292;2023-12-20T08:32:17;139.77;;;88.43;;
30934;SDS011;51033;42.648;23.292;2023-12-20T08:34:43;134.52;;;87.22;;
30934;SDS011;51033;42.648;23.292;2023-12-20T08:37:08;143.02;;;89.95;;
30934;SDS011;51033;42.648;23.292;2023-12-20T08:39:33;144.55;;;92.70;;
30934;SDS011;51033;42.648;23.292;2023-12-20T08:41:59;149.43;;;93.07;;
30934;SDS011;51033;42.648;23.292;2023-12-20T08:44:24;141.25;;;88.88;;
30934;SDS011;51033;42.648;23.292;2023-12-20T08:46:50;149.35;;;92.70;;
30934;SDS011;51033;42.648;23.292;2023-12-20T08:49:15;156.57;;;94.65;;
30934;SDS011;51033;42.648;23.292;2023-12-20T08:51:41;169.35;;;95.35;;
30934;SDS011;51033;42.648;23.292;2023-12-20T08:54:07;151.15;;;95.18;;
30934;SDS011;51033;42.648;23.292;2023-12-20T08:56:35;168.40;;;98.10;;
30934;SDS011;51033;42.648;23.292;2023-12-20T08:59:01;163.13;;;97.53;;
30934;SDS011;51033;42.648;23.292;2023-12-20T09:01:27;157.68;;;94.30;;
30934;SDS011;51033;42.648;23.292;2023-12-20T09:03:52;160.45;;;96.68;;
30934;SDS011;51033;42.648;23.292;2023-12-20T09:06:18;156.00;;;96.95;;
30934;SDS011;51033;42.648;23.292;2023-12-20T09:08:43;162.20;;;98.50;;
30934;SDS011;51033;42.648;23.292;2023-12-20T09:11:08;162.77;;;101.93;;
30934;SDS011;51033;42.648;23.292;2023-12-20T09:13:34;162.93;;;100.30;;
30934;SDS011;51033;42.648;23.292;2023-12-20T09:15:59;165.07;;;102.38;;
30934;SDS011;51033;42.648;23.292;2023-12-20T09:18:25;166.30;;;104.75;;
30934;SDS011;51033;42.648;23.292;2023-12-20T09:20:50;169.48;;;101.93;;
30934;SDS011;51033;42.648;23.292;2023-12-20T09:23:16;156.10;;;97.05;;
30934;SDS011;51033;42.648;23.292;2023-12-20T09:25:42;163.63;;;100.63;;
30934;SDS011;51033;42.648;23.292;2023-12-20T09:28:07;163.40;;;102.63;;
30934;SDS011;51033;42.648;23.292;2023-12-20T09:30:33;173.93;;;105.35;;
30934;SDS011;51033;42.648;23.292;2023-12-20T09:33:00;175.30;;;109.13;;
30934;SDS011;51033;42.648;23.292;2023-12-20T09:35:25;176.63;;;105.18;;
30934;SDS011;51033;42.648;23.292;2023-12-20T09:37:51;176.60;;;106.60;;
30934;SDS011;51033;42.648;23.292;2023-12-20T09:40:19;176.07;;;105.03;;
30934;SDS011;51033;42.648;23.292;2023-12-20T09:42:51;175.82;;;103.90;;
30934;SDS011;51033;42.648;23.292;2023-12-20T09:45:23;174.43;;;110.80;;
30934;SDS011;51033;42.648;23.292;2023-12-20T09:47:52;171.50;;;109.20;;
30934;SDS011;51033;42.648;23.292;2023-12-20T09:50:19;178.50;;;105.32;;
30934;SDS011;51033;42.648;23.292;2023-12-20T09:52:46;174.25;;;104.28;;
30934;SDS011;51033;42.648;23.292;2023-12-20T09:55:14;161.35;;;99.78;;
30934;SDS011;51033;42.648;23.292;2023-12-20T09:57:42;169.50;;;104.80;;
30934;SDS011;51033;42.648;23.292;2023-12-20T10:00:07;173.75;;;104.38;;
30934;SDS011;51033;42.648;23.292;2023-12-20T10:02:33;172.50;;;103.25;;
30934;SDS011;51033;42.648;23.292;2023-12-20T10:05:01;179.20;;;104.88;;
30934;SDS011;51033;42.648;23.292;2023-12-20T10:07:28;182.40;;;104.30;;
30934;SDS011;51033;42.648;23.292;2023-12-20T10:09:54;173.48;;;101.78;;
30934;SDS011;51033;42.648;23.292;2023-12-20T10:12:21;165.73;;;100.95;;
30934;SDS011;51033;42.648;23.292;2023-12-20T10:14:46;176.57;;;108.68;;
30934;SDS011;51033;42.648;23.292;2023-12-20T10:17:12;181.23;;;104.40;;
30934;SDS011;51033;42.648;23.292;2023-12-20T10:19:37;175.93;;;103.70;;
30934;SDS011;51033;42.648;23.292;2023-12-20T10:22:04;179.00;;;104.93;;
30934;SDS011;51033;42.648;23.292;2023-12-20T10:24:30;174.02;;;104.75;;
30934;SDS011;51033;42.648;23.292;2023-12-20T10:27:05;168.95;;;102.25;;
30934;SDS011;51033;42.648;23.292;2023-12-20T10:29:35;165.32;;;104.55;;
30934;SDS011;51033;42.648;23.292;2023-12-20T10:32:21;168.32;;;103.90;;
30934;SDS011;51033;42.648;23.292;2023-12-20T10:34:52;174.10;;;104.43;;
30934;SDS011;51033;42.648;23.292;2023-12-20T10:37:18;176.68;;;108.38;;
30934;SDS011;51033;42.648;23.292;2023-12-20T10:39:46;177.52;;;105.72;;
30934;SDS011;51033;42.648;23.292;2023-12-20T10:42:15;175.70;;;108.68;;
30934;SDS011;51033;42.648;23.292;2023-12-20T10:44:41;170.88;;;105.63;;
30934;SDS011;51033;42.648;23.292;2023-12-20T10:47:07;173.13;;;105.45;;
30934;SDS011;51033;42.648;23.292;2023-12-20T10:49:34;168.82;;;105.30;;
30934;SDS011;51033;42.648;23.292;2023-12-20T10:52:02;164.68;;;104.15;;
30934;SDS011;51033;42.648;23.292;2023-12-20T10:54:29;173.45;;;105.40;;
30934;SDS011;51033;42.648;23.292;2023-12-20T10:56:54;155.20;;;100.85;;
30934;SDS011;51033;42.648;23.292;2023-12-20T10:59:22;165.23;;;104.55;;
30934;SDS011;51033;42.648;23.292;2023-12-20T11:01:50;153.40;;;102.13;;
30934;SDS011;51033;42.648;23.292;2023-12-20T11:04:25;160.13;;;100.43;;
30934;SDS011;51033;42.648;23.292;2023-12-20T11:06:59;143.00;;;96.22;;
30934;SDS011;51033;42.648;23.292;2023-12-20T11:09:59;154.45;;;97.60;;
30934;SDS011;51033;42.648;23.292;2023-12-20T11:12:59;153.40;;;98.85;;
30934;SDS011;51033;42.648;23.292;2023-12-20T11:15:35;149.07;;;97.13;;
30934;SDS011;51033;42.648;23.292;2023-12-20T11:18:02;156.20;;;102.50;;
30934;SDS011;51033;42.648;23.292;2023-12-20T11:20:40;152.52;;;98.60;;
30934;SDS011;51033;42.648;23.292;2023-12-20T11:23:06;154.30;;;98.85;;
30934;SDS011;51033;42.648;23.292;2023-12-20T11:25:46;146.52;;;98.72;;
30934;SDS011;51033;42.648;23.292;2023-12-20T11:28:23;163.40;;;104.45;;
30934;SDS011;51033;42.648;23.292;2023-12-20T11:30:53;142.63;;;98.65;;
30934;SDS011;51033;42.648;23.292;2023-12-20T11:33:29;137.43;;;93.80;;
30934;SDS011;51033;42.648;23.292;2023-12-20T11:35:56;141.68;;;89.78;;
30934;SDS011;51033;42.648;23.292;2023-12-20T11:38:25;139.25;;;87.63;;
30934;SDS011;51033;42.648;23.292;2023-12-20T11:40:51;142.13;;;90.25;;
30934;SDS011;51033;42.648;23.292;2023-12-20T11:43:36;151.45;;;91.60;;
30934;SDS011;51033;42.648;23.292;2023-12-20T11:46:03;124.55;;;83.40;;
30934;SDS011;51033;42.648;23.292;2023-12-20T11:48:34;128.75;;;83.93;;
30934;SDS011;51033;42.648;23.292;2023-12-20T11:51:01;144.10;;;85.30;;
30934;SDS011;51033;42.648;23.292;2023-12-20T11:53:27;127.95;;;82.80;;
30934;SDS011;51033;42.648;23.292;2023-12-20T11:55:53;126.63;;;81.75;;
30934;SDS011;51033;42.648;23.292;2023-12-20T11:58:20;132.30;;;80.80;;
30934;SDS011;51033;42.648;23.292;2023-12-20T12:00:45;141.63;;;83.43;;
30934;SDS011;51033;42.648;23.292;2023-12-20T12:03:14;129.02;;;80.50;;
30934;SDS011;51033;42.648;23.292;2023-12-20T12:05:39;130.82;;;83.13;;
30934;SDS011;51033;42.648;23.292;2023-12-20T12:08:05;136.68;;;79.15;;
30934;SDS011;51033;42.648;23.292;2023-12-20T12:10:31;128.40;;;76.65;;
30934;SDS011;51033;42.648;23.292;2023-12-20T12:12:59;132.27;;;78.32;;
30934;SDS011;51033;42.648;23.292;2023-12-20T12:15:26;137.00;;;78.28;;
30934;SDS011;51033;42.648;23.292;2023-12-20T12:17:55;127.15;;;76.20;;
30934;SDS011;51033;42.648;23.292;2023-12-20T12:20:23;129.30;;;72.22;;
30934;SDS011;51033;42.648;23.292;2023-12-20T12:23:02;128.82;;;70.15;;
30934;SDS011;51033;42.648;23.292;2023-12-20T12:25:29;122.07;;;69.20;;
30934;SDS011;51033;42.648;23.292;2023-12-20T12:27:58;121.28;;;72.10;;
30934;SDS011;51033;42.648;23.292;2023-12-20T12:30:24;119.13;;;69.50;;
30934;SDS011;51033;42.648;23.292;2023-12-20T12:32:53;129.80;;;76.30;;
30934;SDS011;51033;42.648;23.292;2023-12-20T12:35:21;116.97;;;67.45;;
30934;SDS011;51033;42.648;23.292;2023-12-20T12:37:46;117.97;;;69.03;;
30934;SDS011;51033;42.648;23.292;2023-12-20T12:40:15;112.30;;;64.22;;
30934;SDS011;51033;42.648;23.292;2023-12-20T12:42:42;121.72;;;67.10;;
30934;SDS011;51033;42.648;23.292;2023-12-20T12:45:09;103.65;;;65.13;;
30934;SDS011;51033;42.648;23.292;2023-12-20T12:47:36;118.03;;;68.32;;
30934;SDS011;51033;42.648;23.292;2023-12-20T12:50:02;115.95;;;69.97;;
30934;SDS011;51033;42.648;23.292;2023-12-20T12:52:28;120.20;;;66.32;;
30934;SDS011;51033;42.648;23.292;2023-12-20T12:54:55;109.93;;;64.57;;
30934;SDS011;51033;42.648;23.292;2023-12-20T12:57:21;116.38;;;64.18;;
30934;SDS011;51033;42.648;23.292;2023-12-20T12:59:47;110.45;;;66.05;;
30934;SDS011;51033;42.648;23.292;2023-12-20T13:02:12;128.73;;;71.85;;
30934;SDS011;51033;42.648;23.292;2023-12-20T13:04:39;115.00;;;65.05;;
30934;SDS011;51033;42.648;23.292;2023-12-20T13:07:05;125.70;;;70.32;;
30934;SDS011;51033;42.648;23.292;2023-12-20T13:09:31;123.78;;;69.35;;
30934;SDS011;51033;42.648;23.292;2023-12-20T13:11:56;119.95;;;67.90;;
30934;SDS011;51033;42.648;23.292;2023-12-20T13:14:22;126.78;;;69.85;;
30934;SDS011;51033;42.648;23.292;2023-12-20T13:16:47;123.70;;;70.43;;
30934;SDS011;51033;42.648;23.292;2023-12-20T13:19:13;113.95;;;66.10;;
30934;SDS011;51033;42.648;23.292;2023-12-20T13:21:38;108.88;;;66.93;;
30934;SDS011;51033;42.648;23.292;2023-12-20T13:24:04;121.07;;;68.90;;
30934;SDS011;51033;42.648;23.292;2023-12-20T13:26:30;116.30;;;66.68;;
30934;SDS011;51033;42.648;23.292;2023-12-20T13:28:55;122.32;;;72.72;;
30934;SDS011;51033;42.648;23.292;2023-12-20T13:31:21;132.10;;;72.30;;
30934;SDS011;51033;42.648;23.292;2023-12-20T13:33:47;114.57;;;67.68;;
30934;SDS011;51033;42.648;23.292;2023-12-20T13:36:12;116.70;;;68.47;;
30934;SDS011;51033;42.648;23.292;2023-12-20T13:38:38;131.32;;;73.53;;
30934;SDS011;51033;42.648;23.292;2023-12-20T13:41:04;123.00;;;69.10;;
30934;SDS011;51033;42.648;23.292;2023-12-20T13:43:30;118.47;;;69.70;;
30934;SDS011;51033;42.648;23.292;2023-12-20T13:45:57;128.02;;;74.95;;
30934;SDS011;51033;42.648;23.292;2023-12-20T13:48:23;147.65;;;77.10;;
30934;SDS011;51033;42.648;23.292;2023-12-20T13:50:49;136.65;;;79.00;;
30934;SDS011;51033;42.648;23.292;2023-12-20T13:53:14;126.70;;;75.10;;
30934;SDS011;51033;42.648;23.292;2023-12-20T13:55:39;132.02;;;72.82;;
30934;SDS011;51033;42.648;23.292;2023-12-20T13:58:05;130.25;;;74.43;;